createdAt,value
2022-11-24T00:01:07.226Z,20.48
2022-11-24T00:03:34.486Z,19.48
2022-11-24T00:06:15.160Z,21.20
2022-11-24T00:08:44.453Z,23.92
2022-11-24T00:11:14.235Z,19.65
2022-11-24T00:13:41.695Z,20.98
2022-11-24T00:16:15.900Z,21.40
2022-11-24T00:18:45.735Z,21.65
2022-11-24T00:21:13.715Z,20.83
2022-11-24T00:23:41.084Z,22.88
2022-11-24T00:26:17.330Z,21.02
2022-11-24T00:28:45.192Z,21.48
2022-11-24T00:31:39.116Z,22.83
2022-11-24T00:34:10.189Z,23.73
2022-11-24T00:36:37.257Z,24.17
2022-11-24T00:39:07.167Z,24.75
2022-11-24T00:41:35.010Z,24.00
2022-11-24T00:44:02.006Z,24.60
2022-11-24T00:46:29.312Z,21.73
2022-11-24T00:48:56.816Z,20.42
2022-11-24T00:51:30.239Z,20.85
2022-11-24T00:54:01.291Z,19.23
2022-11-24T00:56:29.806Z,19.35
2022-11-24T00:58:56.730Z,19.05
2022-11-24T01:01:26.379Z,19.02
2022-11-24T01:03:54.681Z,19.70
2022-11-24T01:06:24.805Z,19.35
2022-11-24T01:08:51.822Z,18.92
2022-11-24T01:11:27.661Z,19.55
2022-11-24T01:13:57.825Z,20.00
2022-11-24T01:16:35.435Z,18.40
2022-11-24T01:19:03.931Z,17.75
2022-11-24T01:21:30.706Z,18.63
2022-11-24T01:23:57.967Z,20.65
2022-11-24T01:26:24.832Z,18.23
2022-11-24T01:28:56.169Z,19.83
2022-11-24T01:31:24.051Z,19.50
2022-11-24T01:33:51.028Z,18.83
2022-11-24T01:36:18.321Z,20.38
2022-11-24T01:38:45.128Z,18.08
2022-11-24T01:41:15.563Z,18.05
2022-11-24T01:43:43.438Z,19.17
2022-11-24T01:46:35.270Z,17.60
2022-11-24T01:49:14.591Z,18.63
2022-11-24T01:51:50.553Z,20.17
2022-11-24T01:54:31.027Z,19.20
2022-11-24T01:57:03.701Z,20.70
2022-11-24T01:59:31.033Z,17.30
2022-11-24T02:01:57.988Z,18.17
2022-11-24T02:04:29.854Z,19.00
2022-11-24T02:09:46.986Z,20.92
2022-11-24T02:12:13.774Z,19.50
2022-11-24T02:14:43.010Z,20.10
2022-11-24T02:17:09.878Z,19.17
2022-11-24T02:20:20.569Z,18.65
2022-11-24T02:23:19.113Z,18.58
2022-11-24T02:26:10.204Z,19.02
2022-11-24T02:28:37.690Z,19.77
2022-11-24T02:31:05.833Z,20.17
2022-11-24T02:33:34.551Z,20.20
2022-11-24T02:36:01.378Z,19.33
2022-11-24T02:38:33.447Z,19.35
2022-11-24T02:41:11.291Z,19.77
2022-11-24T02:43:46.905Z,21.30
2022-11-24T02:46:13.745Z,21.92
2022-11-24T02:48:40.635Z,22.33
2022-11-24T02:51:07.559Z,19.17
2022-11-24T02:53:34.419Z,22.55
2022-11-24T02:56:01.247Z,18.88
2022-11-24T02:58:28.131Z,20.63
2022-11-24T03:00:55.220Z,21.40
2022-11-24T03:03:22.245Z,21.33
2022-11-24T03:05:49.203Z,21.65
2022-11-24T03:08:16.281Z,20.92
2022-11-24T03:10:43.475Z,22.33
2022-11-24T03:13:10.627Z,21.02
2022-11-24T03:15:37.618Z,21.48
2022-11-24T03:18:04.480Z,23.63
2022-11-24T03:20:31.309Z,28.90
2022-11-24T03:22:58.128Z,21.05
2022-11-24T03:25:25.022Z,21.02
2022-11-24T03:27:51.800Z,22.88
2022-11-24T03:30:18.631Z,21.08
2022-11-24T03:32:45.532Z,21.85
2022-11-24T03:35:12.326Z,24.60
2022-11-24T03:37:39.178Z,22.25
2022-11-24T03:40:06.731Z,22.80
2022-11-24T03:42:33.512Z,20.30
2022-11-24T03:45:16.753Z,21.35
2022-11-24T03:47:51.330Z,20.60
2022-11-24T03:50:18.216Z,22.13
2022-11-24T03:52:44.963Z,22.48
2022-11-24T03:55:11.763Z,21.02
2022-11-24T03:57:39.375Z,21.25
2022-11-24T04:00:06.974Z,21.25
2022-11-24T04:02:33.846Z,24.25
2022-11-24T04:05:00.696Z,21.55
2022-11-24T04:07:27.486Z,21.90
2022-11-24T04:09:54.355Z,24.60
2022-11-24T04:12:39.560Z,21.83
2022-11-24T04:15:06.944Z,18.27
2022-11-24T04:17:33.743Z,20.92
2022-11-24T04:20:00.500Z,19.77
2022-11-24T04:22:27.395Z,23.20
2022-11-24T04:24:54.131Z,20.95
2022-11-24T04:27:20.899Z,20.42
2022-11-24T04:29:47.707Z,22.08
2022-11-24T04:32:14.527Z,21.40
2022-11-24T04:34:41.315Z,21.83
2022-11-24T04:37:08.134Z,20.45
2022-11-24T04:39:35.126Z,20.80
2022-11-24T04:42:02.068Z,20.88
2022-11-24T04:44:28.927Z,23.17
2022-11-24T04:46:55.824Z,22.63
2022-11-24T04:49:22.742Z,17.38
2022-11-24T04:51:49.750Z,19.98
2022-11-24T04:54:16.752Z,18.20
2022-11-24T04:56:44.096Z,19.05
2022-11-24T04:59:15.117Z,20.67
2022-11-24T05:01:46.409Z,21.05
2022-11-24T05:04:15.115Z,24.25
2022-11-24T05:06:42.044Z,21.75
2022-11-24T05:09:13.585Z,23.33
2022-11-24T05:11:42.135Z,22.00
2022-11-24T05:14:09.023Z,21.17
2022-11-24T05:16:36.027Z,23.88
2022-11-24T05:19:02.819Z,20.48
2022-11-24T05:21:29.532Z,21.52
2022-11-24T05:23:56.313Z,22.25
2022-11-24T05:26:23.277Z,20.65
2022-11-24T05:28:50.023Z,22.75
2022-11-24T05:31:16.856Z,25.35
2022-11-24T05:33:43.683Z,25.92
2022-11-24T05:36:30.491Z,27.35
2022-11-24T05:38:57.411Z,28.77
2022-11-24T05:41:24.148Z,24.00
2022-11-24T05:43:51.062Z,26.38
2022-11-24T05:46:17.976Z,28.33
2022-11-24T05:48:44.788Z,28.85
2022-11-24T05:51:11.590Z,24.08
2022-11-24T05:53:38.281Z,22.73
2022-11-24T05:56:05.330Z,21.75
2022-11-24T05:58:32.183Z,23.70
2022-11-24T06:00:58.957Z,23.98
2022-11-24T06:03:25.654Z,25.25
2022-11-24T06:05:52.445Z,23.65
2022-11-24T06:08:19.263Z,25.45
2022-11-24T06:10:45.962Z,22.85
2022-11-24T06:13:12.674Z,21.73
2022-11-24T06:15:40.809Z,24.60
2022-11-24T06:18:07.656Z,25.88
2022-11-24T06:20:34.672Z,24.73
2022-11-24T06:23:01.590Z,26.30
2022-11-24T06:25:29.426Z,24.95
2022-11-24T06:27:56.229Z,25.27
2022-11-24T06:30:23.266Z,25.40
2022-11-24T06:32:54.815Z,20.55
2022-11-24T06:35:21.667Z,24.85
2022-11-24T06:37:48.401Z,22.17
2022-11-24T06:40:15.146Z,25.00
2022-11-24T06:42:41.923Z,20.35
2022-11-24T06:45:09.799Z,22.75
2022-11-24T06:47:37.048Z,20.80
2022-11-24T06:50:04.451Z,22.90
2022-11-24T06:52:31.227Z,20.65
2022-11-24T06:54:57.960Z,21.33
2022-11-24T06:57:24.789Z,22.38
2022-11-24T06:59:51.603Z,19.58
2022-11-24T07:02:18.312Z,24.30
2022-11-24T07:04:45.101Z,23.92
2022-11-24T07:07:12.749Z,22.67
2022-11-24T07:09:39.564Z,24.45
2022-11-24T07:12:06.714Z,23.38
2022-11-24T07:14:33.810Z,24.30
2022-11-24T07:17:02.514Z,28.65
2022-11-24T07:19:29.390Z,23.30
2022-11-24T07:21:56.569Z,24.35
2022-11-24T07:24:23.410Z,25.70
2022-11-24T07:26:50.215Z,25.73
2022-11-24T07:29:16.938Z,26.30
2022-11-24T07:31:43.996Z,25.33
2022-11-24T07:34:10.763Z,26.73
2022-11-24T07:36:37.481Z,24.63
2022-11-24T07:39:06.958Z,27.50
2022-11-24T07:41:33.745Z,25.85
2022-11-24T07:44:00.481Z,23.88
2022-11-24T07:46:27.320Z,25.73
2022-11-24T07:48:54.074Z,24.85
2022-11-24T07:51:20.826Z,24.13
2022-11-24T07:53:47.571Z,23.83
2022-11-24T07:56:14.401Z,30.60
2022-11-24T07:58:41.192Z,21.00
2022-11-24T08:01:16.342Z,21.88
2022-11-24T08:03:44.119Z,23.40
2022-11-24T08:06:30.534Z,20.65
2022-11-24T08:08:59.085Z,23.67
2022-11-24T08:11:26.261Z,23.90
2022-11-24T08:13:53.110Z,23.42
2022-11-24T08:16:20.491Z,23.05
2022-11-24T08:18:52.393Z,20.38
2022-11-24T08:21:19.860Z,24.08
2022-11-24T08:23:47.143Z,21.30
2022-11-24T08:26:18.891Z,21.77
2022-11-24T08:28:46.601Z,23.60
2022-11-24T08:31:16.662Z,21.25
2022-11-24T08:33:43.446Z,22.65
2022-11-24T08:36:15.390Z,26.15
2022-11-24T08:41:12.628Z,19.23
2022-11-24T08:43:40.167Z,18.83
2022-11-24T08:46:09.902Z,22.38
2022-11-24T08:48:37.280Z,20.85
2022-11-24T08:51:26.054Z,18.98
2022-11-24T08:53:58.347Z,19.55
2022-11-24T08:56:27.376Z,21.25
2022-11-24T08:58:55.389Z,19.33
2022-11-24T09:01:22.891Z,21.38
2022-11-24T09:03:51.515Z,21.88
2022-11-24T09:06:27.665Z,23.45
2022-11-24T09:08:55.632Z,19.63
2022-11-24T09:11:23.122Z,20.10
2022-11-24T09:13:50.472Z,19.27
2022-11-24T09:16:19.754Z,24.13
2022-11-24T09:18:48.314Z,21.17
2022-11-24T09:21:18.203Z,24.27
2022-11-24T09:23:48.435Z,21.67
2022-11-24T09:26:16.553Z,23.60
2022-11-24T09:28:43.880Z,22.23
2022-11-24T09:31:13.112Z,22.05
2022-11-24T09:33:41.022Z,24.17
2022-11-24T09:36:08.023Z,24.00
2022-11-24T09:38:34.828Z,21.00
2022-11-24T09:41:32.362Z,20.58
2022-11-24T09:44:23.511Z,22.17
2022-11-24T09:47:02.101Z,27.48
2022-11-24T09:49:58.973Z,22.23
2022-11-24T09:53:13.614Z,26.45
2022-11-24T09:56:21.987Z,23.75
2022-11-24T09:58:52.003Z,25.20
2022-11-24T10:01:20.646Z,23.40
2022-11-24T10:03:54.579Z,20.00
2022-11-24T10:06:31.123Z,23.77
2022-11-24T10:09:56.185Z,23.15
2022-11-24T10:12:31.870Z,22.15
2022-11-24T10:15:18.860Z,19.58
2022-11-24T10:17:52.220Z,23.20
2022-11-24T10:20:30.844Z,18.70
2022-11-24T10:23:39.727Z,21.30
2022-11-24T10:26:29.923Z,21.15
2022-11-24T10:28:57.912Z,20.95
2022-11-24T10:31:33.186Z,22.65
2022-11-24T10:34:14.955Z,23.13
2022-11-24T10:37:10.619Z,23.08
2022-11-24T10:39:41.454Z,22.98
2022-11-24T10:42:18.231Z,24.48
2022-11-24T10:44:45.109Z,24.75
2022-11-24T10:47:20.534Z,23.35
2022-11-24T10:49:58.202Z,22.48
2022-11-24T10:52:26.391Z,27.20
2022-11-24T10:54:59.232Z,26.58
2022-11-24T10:57:32.479Z,29.67
2022-11-24T11:00:00.129Z,27.67
2022-11-24T11:02:31.745Z,29.15
2022-11-24T11:04:58.962Z,27.30
2022-11-24T11:07:26.656Z,29.30
2022-11-24T11:10:20.604Z,35.22
2022-11-24T11:12:47.653Z,25.70
2022-11-24T11:15:26.864Z,25.55
2022-11-24T11:17:58.536Z,28.17
2022-11-24T11:20:35.196Z,28.02
2022-11-24T11:23:14.816Z,26.98
2022-11-24T11:25:43.616Z,25.13
2022-11-24T11:28:25.379Z,24.88
2022-11-24T11:31:21.318Z,24.95
2022-11-24T11:34:05.298Z,27.67
2022-11-24T11:36:34.480Z,26.58
2022-11-24T11:39:03.924Z,25.30
2022-11-24T11:41:36.025Z,24.42
2022-11-24T11:44:27.346Z,25.73
2022-11-24T11:46:58.707Z,24.55
2022-11-24T11:49:25.801Z,26.05
2022-11-24T11:52:30.672Z,25.08
2022-11-24T11:55:46.587Z,24.65
2022-11-24T11:58:48.548Z,24.90
2022-11-24T12:01:15.194Z,23.35
2022-11-24T12:04:04.593Z,23.20
2022-11-24T12:06:37.093Z,24.60
2022-11-24T12:09:24.556Z,25.23
2022-11-24T12:12:20.549Z,26.40
2022-11-24T12:15:10.589Z,26.73
2022-11-24T12:18:03.260Z,25.83
2022-11-24T12:23:02.705Z,25.25
2022-11-24T12:25:40.160Z,23.83
2022-11-24T12:28:37.940Z,25.25
2022-11-24T12:31:13.605Z,23.35
2022-11-24T12:34:36.440Z,23.42
2022-11-24T12:37:21.792Z,31.88
2022-11-24T12:40:04.095Z,26.80
2022-11-24T12:42:59.944Z,25.90
2022-11-24T12:45:45.300Z,27.77
2022-11-24T12:48:18.060Z,27.52
2022-11-24T12:50:46.254Z,28.55
2022-11-24T12:53:12.944Z,28.17
2022-11-24T12:55:40.983Z,31.52
2022-11-24T12:58:21.582Z,25.90
2022-11-24T13:01:04.851Z,24.88
2022-11-24T13:04:09.204Z,29.30
2022-11-24T13:06:47.480Z,26.98
2022-11-24T13:09:16.091Z,26.58
2022-11-24T13:11:45.793Z,25.17
2022-11-24T13:14:24.365Z,24.02
2022-11-24T13:19:44.327Z,27.65
2022-11-24T13:22:16.810Z,25.05
2022-11-24T13:24:45.185Z,24.90
2022-11-24T13:27:26.578Z,26.50
2022-11-24T13:29:54.060Z,25.27
2022-11-24T13:32:23.870Z,30.15
2022-11-24T13:34:54.860Z,28.45
2022-11-24T13:37:33.758Z,28.67
2022-11-24T13:40:22.690Z,25.35
2022-11-24T13:42:56.202Z,30.77
2022-11-24T13:45:41.807Z,25.48
2022-11-24T13:48:21.741Z,28.42
2022-11-24T13:50:53.170Z,27.27
2022-11-24T13:53:38.243Z,29.13
2022-11-24T13:56:13.860Z,25.73
2022-11-24T13:58:43.613Z,29.80
2022-11-24T14:01:21.794Z,30.80
2022-11-24T14:06:53.360Z,28.00
2022-11-24T14:09:36.455Z,27.98
2022-11-24T14:12:08.568Z,28.75
2022-11-24T14:14:35.577Z,25.77
2022-11-24T14:17:15.090Z,29.05
2022-11-24T14:19:43.785Z,28.40
2022-11-24T14:22:40.172Z,28.83
2022-11-24T14:25:20.220Z,28.10
2022-11-24T14:27:47.036Z,27.02
2022-11-24T14:30:13.736Z,26.65
2022-11-24T14:32:42.288Z,29.90
2022-11-24T14:35:32.069Z,25.90
2022-11-24T14:38:04.221Z,23.90
2022-11-24T14:40:40.299Z,22.40
2022-11-24T14:43:20.283Z,24.00
2022-11-24T14:46:12.292Z,23.52
2022-11-24T14:51:29.377Z,25.00
2022-11-24T14:54:02.193Z,24.35
2022-11-24T14:56:37.652Z,23.05
2022-11-24T14:59:20.569Z,27.02
2022-11-24T15:01:47.425Z,21.08
2022-11-24T15:05:01.744Z,23.58
2022-11-24T15:07:16.563Z,24.20
2022-11-24T15:10:35.008Z,24.13
2022-11-24T15:13:05.332Z,23.42
2022-11-24T15:15:38.844Z,22.23
2022-11-24T15:18:06.973Z,25.88
2022-11-24T15:20:35.681Z,22.85
2022-11-24T15:23:22.976Z,20.50
2022-11-24T15:25:54.400Z,20.60
2022-11-24T15:28:25.820Z,22.80
2022-11-24T15:31:00.023Z,20.23
2022-11-24T15:33:27.673Z,17.92
2022-11-24T15:35:54.682Z,21.40
2022-11-24T15:38:22.505Z,19.77
2022-11-24T15:40:52.424Z,20.90
2022-11-24T15:43:39.761Z,19.08
2022-11-24T15:46:07.799Z,19.50
2022-11-24T15:48:35.168Z,18.13
2022-11-24T15:51:05.810Z,19.30
2022-11-24T15:53:34.380Z,21.70
2022-11-24T15:56:03.373Z,21.42
2022-11-24T15:58:30.466Z,21.48
2022-11-24T16:00:57.469Z,20.60
2022-11-24T16:03:46.268Z,22.55
2022-11-24T16:06:22.188Z,22.80
2022-11-24T16:08:50.456Z,23.13
2022-11-24T16:11:17.223Z,23.27
2022-11-24T16:13:50.120Z,20.65
2022-11-24T16:16:19.787Z,24.23
2022-11-24T16:18:46.673Z,21.05
2022-11-24T16:21:13.442Z,22.30
2022-11-24T16:23:40.216Z,23.08
2022-11-24T16:26:07.363Z,26.98
2022-11-24T16:28:34.558Z,24.73
2022-11-24T16:31:01.642Z,26.42
2022-11-24T16:33:32.259Z,25.10
2022-11-24T16:35:59.119Z,25.08
2022-11-24T16:38:25.986Z,25.60
2022-11-24T16:40:54.598Z,24.40
2022-11-24T16:43:21.474Z,26.33
2022-11-24T16:46:16.362Z,25.95
2022-11-24T16:48:44.249Z,27.83
2022-11-24T16:51:11.840Z,26.25
2022-11-24T16:53:38.781Z,25.65
2022-11-24T16:56:06.327Z,26.35
2022-11-24T16:58:33.495Z,23.98
2022-11-24T17:01:08.531Z,26.65
2022-11-24T17:03:37.535Z,26.15
2022-11-24T17:06:09.688Z,25.77
2022-11-24T17:08:39.365Z,25.15
2022-11-24T17:11:10.864Z,26.65
2022-11-24T17:13:39.083Z,26.15
2022-11-24T17:16:07.567Z,23.88
2022-11-24T17:18:34.624Z,26.58
2022-11-24T17:21:07.680Z,26.40
2022-11-24T17:23:36.116Z,24.38
2022-11-24T17:26:05.143Z,23.15
2022-11-24T17:28:32.162Z,23.67
2022-11-24T17:30:59.114Z,22.85
2022-11-24T17:33:28.055Z,24.55
2022-11-24T17:35:54.892Z,26.77
2022-11-24T17:38:21.888Z,23.23
2022-11-24T17:40:48.666Z,24.08
2022-11-24T17:43:15.559Z,22.58
2022-11-24T17:45:42.472Z,24.92
2022-11-24T17:48:09.212Z,26.17
2022-11-24T17:50:36.059Z,23.75
2022-11-24T17:53:02.879Z,23.98
2022-11-24T17:55:29.675Z,21.42
2022-11-24T17:57:56.817Z,22.20
2022-11-24T18:00:24.111Z,24.90
2022-11-24T18:02:50.928Z,22.92
2022-11-24T18:05:17.825Z,21.98
2022-11-24T18:07:44.643Z,23.60
2022-11-24T18:10:11.663Z,23.40
2022-11-24T18:12:39.898Z,21.95
2022-11-24T18:15:07.203Z,19.13
2022-11-24T18:17:34.051Z,23.95
2022-11-24T18:20:00.878Z,22.10
2022-11-24T18:22:49.858Z,22.17
2022-11-24T18:25:14.688Z,19.55
2022-11-24T18:27:41.849Z,22.77
2022-11-24T18:30:09.221Z,22.00
2022-11-24T18:32:36.095Z,22.10
2022-11-24T18:35:02.940Z,22.15
2022-11-24T18:37:33.974Z,22.40
2022-11-24T18:40:00.966Z,21.17
2022-11-24T18:42:30.180Z,21.42
2022-11-24T18:44:57.477Z,20.15
2022-11-24T18:47:24.340Z,20.15
2022-11-24T18:50:08.780Z,21.65
2022-11-24T18:52:35.461Z,19.42
2022-11-24T18:55:04.046Z,20.40
2022-11-24T18:57:33.970Z,21.38
2022-11-24T19:00:00.881Z,23.90
2022-11-24T19:02:27.693Z,23.48
2022-11-24T19:04:54.619Z,20.55
2022-11-24T19:07:21.498Z,22.67
2022-11-24T19:09:48.469Z,21.52
2022-11-24T19:12:15.275Z,19.42
2022-11-24T19:14:42.071Z,18.85
2022-11-24T19:17:08.915Z,20.33
2022-11-24T19:19:36.015Z,22.83
2022-11-24T19:22:03.672Z,22.25
2022-11-24T19:24:30.404Z,21.50
2022-11-24T19:26:57.526Z,20.58
2022-11-24T19:29:24.318Z,21.10
2022-11-24T19:31:51.234Z,23.40
2022-11-24T19:34:18.288Z,22.80
2022-11-24T19:36:45.009Z,21.23
2022-11-24T19:39:15.393Z,23.63
2022-11-24T19:41:42.303Z,23.08
2022-11-24T19:44:12.914Z,19.73
2022-11-24T19:46:40.706Z,21.30
2022-11-24T19:49:10.487Z,20.92
2022-11-24T19:51:39.096Z,20.73
2022-11-24T19:54:08.156Z,18.73
2022-11-24T19:56:37.083Z,19.52
2022-11-24T19:59:06.212Z,19.25
2022-11-24T20:01:39.608Z,20.00
2022-11-24T20:04:18.511Z,20.73
2022-11-24T20:06:47.188Z,19.25
2022-11-24T20:09:16.734Z,18.00
2022-11-24T20:11:43.963Z,19.05
2022-11-24T20:14:15.362Z,19.98
2022-11-24T20:16:42.466Z,19.83
2022-11-24T20:19:14.560Z,19.13
2022-11-24T20:21:46.146Z,16.92
2022-11-24T20:24:15.993Z,20.15
2022-11-24T20:26:46.285Z,18.88
2022-11-24T20:29:14.750Z,16.45
2022-11-24T20:31:47.679Z,14.55
2022-11-24T20:34:14.786Z,17.13
2022-11-24T20:36:43.538Z,17.20
2022-11-24T20:39:15.376Z,20.08
2022-11-24T20:41:42.175Z,18.20
2022-11-24T20:44:13.694Z,19.92
2022-11-24T20:46:42.146Z,18.65
2022-11-24T20:49:13.091Z,18.52
2022-11-24T20:51:43.818Z,18.87
2022-11-24T20:54:13.123Z,20.48
2022-11-24T20:56:42.082Z,17.73
2022-11-24T20:59:12.312Z,17.63
2022-11-24T21:01:42.537Z,18.83
2022-11-24T21:04:12.454Z,19.15
2022-11-24T21:06:39.982Z,19.48
2022-11-24T21:09:08.525Z,19.17
2022-11-24T21:11:36.431Z,19.65
2022-11-24T21:14:03.612Z,19.83
2022-11-24T21:16:32.833Z,19.67
2022-11-24T21:19:11.462Z,17.88
2022-11-24T21:21:39.816Z,22.42
2022-11-24T21:24:11.575Z,18.00
2022-11-24T21:26:39.608Z,15.45
2022-11-24T21:29:06.865Z,16.50
2022-11-24T21:31:37.619Z,19.42
2022-11-24T21:34:05.933Z,21.80
2022-11-24T21:36:34.922Z,18.52
2022-11-24T21:39:03.390Z,18.02
2022-11-24T21:41:32.966Z,16.35
2022-11-24T21:44:00.276Z,16.40
2022-11-24T21:46:29.545Z,15.60
2022-11-24T21:48:56.269Z,17.25
2022-11-24T21:51:23.224Z,17.23
2022-11-24T21:53:50.070Z,16.90
2022-11-24T21:56:19.402Z,18.40
2022-11-24T21:58:47.743Z,17.35
2022-11-24T22:01:16.067Z,18.13
2022-11-24T22:03:43.111Z,15.82
2022-11-24T22:06:10.284Z,16.05
2022-11-24T22:08:37.571Z,17.35
2022-11-24T22:11:11.573Z,17.30
2022-11-24T22:13:38.881Z,18.13
2022-11-24T22:16:08.515Z,16.15
2022-11-24T22:18:40.321Z,17.95
2022-11-24T22:21:10.209Z,17.33
2022-11-24T22:23:37.064Z,18.83
2022-11-24T22:26:05.969Z,18.63
2022-11-24T22:28:34.192Z,17.85
2022-11-24T22:31:07.801Z,18.65
2022-11-24T22:33:34.805Z,18.42
2022-11-24T22:36:02.253Z,19.88
2022-11-24T22:38:30.190Z,18.45
2022-11-24T22:41:05.149Z,18.60
2022-11-24T22:43:33.548Z,16.60
2022-11-24T22:46:08.749Z,19.95
2022-11-24T22:48:35.615Z,19.42
2022-11-24T22:51:19.275Z,17.33
2022-11-24T22:53:51.078Z,17.63
2022-11-24T22:58:44.558Z,17.65
2022-11-24T23:01:13.684Z,17.65
2022-11-24T23:03:41.431Z,19.60
2022-11-24T23:06:20.316Z,18.15
2022-11-24T23:08:47.627Z,18.35
2022-11-24T23:11:18.011Z,17.95
2022-11-24T23:13:45.079Z,18.80
2022-11-24T23:16:14.518Z,18.42
2022-11-24T23:18:41.906Z,21.00
2022-11-24T23:21:12.039Z,18.98
2022-11-24T23:23:40.143Z,19.17
2022-11-24T23:26:11.923Z,20.88
2022-11-24T23:28:39.816Z,20.55
2022-11-24T23:31:16.522Z,20.05
2022-11-24T23:33:43.615Z,16.90
2022-11-24T23:36:16.286Z,18.13
2022-11-24T23:38:44.382Z,18.73
2022-11-24T23:41:13.693Z,19.52
2022-11-24T23:43:41.816Z,17.70
2022-11-24T23:46:12.913Z,18.75
2022-11-24T23:48:40.307Z,19.48
2022-11-24T23:51:13.350Z,16.98
2022-11-24T23:53:40.568Z,19.95
2022-11-24T23:56:08.578Z,17.70
2022-11-24T23:58:35.412Z,17.67
